sensor_id;sensor_type;location;lat;lon;timestamp;P1;durP1;ratioP1;P2;durP2;ratioP2
59685;SDS011;45554;51.096;16.976;2022-12-18T00:00:03;37.00;;;13.80;;
59685;SDS011;45554;51.096;16.976;2022-12-18T00:03:00;35.90;;;13.60;;
59685;SDS011;45554;51.096;16.976;2022-12-18T00:05:28;37.00;;;14.40;;
59685;SDS011;45554;51.096;16.976;2022-12-18T00:07:56;33.50;;;14.20;;
59685;SDS011;45554;51.096;16.976;2022-12-18T00:10:24;34.90;;;13.40;;
59685;SDS011;45554;51.096;16.976;2022-12-18T00:12:51;33.10;;;15.00;;
59685;SDS011;45554;51.096;16.976;2022-12-18T00:15:19;39.90;;;16.10;;
59685;SDS011;45554;51.096;16.976;2022-12-18T00:17:47;42.60;;;15.50;;
59685;SDS011;45554;51.096;16.976;2022-12-18T00:20:15;38.70;;;15.00;;
59685;SDS011;45554;51.096;16.976;2022-12-18T00:22:48;38.60;;;14.50;;
59685;SDS011;45554;51.096;16.976;2022-12-18T00:25:15;39.50;;;15.00;;
59685;SDS011;45554;51.096;16.976;2022-12-18T00:27:43;36.50;;;15.50;;
59685;SDS011;45554;51.096;16.976;2022-12-18T00:30:11;35.60;;;15.00;;
59685;SDS011;45554;51.096;16.976;2022-12-18T00:32:40;38.40;;;14.40;;
59685;SDS011;45554;51.096;16.976;2022-12-18T00:35:08;38.30;;;14.30;;
59685;SDS011;45554;51.096;16.976;2022-12-18T00:37:36;37.10;;;14.90;;
59685;SDS011;45554;51.096;16.976;2022-12-18T00:40:04;38.00;;;13.90;;
59685;SDS011;45554;51.096;16.976;2022-12-18T00:42:35;42.50;;;15.70;;
59685;SDS011;45554;51.096;16.976;2022-12-18T00:45:22;34.10;;;14.10;;
59685;SDS011;45554;51.096;16.976;2022-12-18T00:50:19;36.30;;;13.80;;
59685;SDS011;45554;51.096;16.976;2022-12-18T00:52:48;35.90;;;13.60;;
59685;SDS011;45554;51.096;16.976;2022-12-18T00:55:16;34.10;;;13.30;;
59685;SDS011;45554;51.096;16.976;2022-12-18T00:57:47;40.60;;;13.00;;
59685;SDS011;45554;51.096;16.976;2022-12-18T01:03:13;34.80;;;14.00;;
59685;SDS011;45554;51.096;16.976;2022-12-18T01:05:45;36.30;;;14.10;;
59685;SDS011;45554;51.096;16.976;2022-12-18T01:08:21;33.30;;;12.60;;
59685;SDS011;45554;51.096;16.976;2022-12-18T01:10:57;38.60;;;14.10;;
59685;SDS011;45554;51.096;16.976;2022-12-18T01:13:30;33.20;;;13.20;;
59685;SDS011;45554;51.096;16.976;2022-12-18T01:16:04;35.70;;;13.10;;
59685;SDS011;45554;51.096;16.976;2022-12-18T01:18:38;28.10;;;11.50;;
59685;SDS011;45554;51.096;16.976;2022-12-18T01:21:11;30.20;;;12.20;;
59685;SDS011;45554;51.096;16.976;2022-12-18T01:23:42;30.80;;;11.90;;
59685;SDS011;45554;51.096;16.976;2022-12-18T01:26:15;30.80;;;12.20;;
59685;SDS011;45554;51.096;16.976;2022-12-18T01:28:46;35.50;;;13.30;;
59685;SDS011;45554;51.096;16.976;2022-12-18T01:31:21;34.90;;;13.50;;
59685;SDS011;45554;51.096;16.976;2022-12-18T01:34:02;35.30;;;13.90;;
59685;SDS011;45554;51.096;16.976;2022-12-18T01:36:36;33.70;;;13.40;;
59685;SDS011;45554;51.096;16.976;2022-12-18T01:39:10;38.10;;;13.90;;
59685;SDS011;45554;51.096;16.976;2022-12-18T01:41:42;31.90;;;12.10;;
59685;SDS011;45554;51.096;16.976;2022-12-18T01:50:13;31.10;;;12.20;;
59685;SDS011;45554;51.096;16.976;2022-12-18T01:52:47;34.30;;;13.80;;
59685;SDS011;45554;51.096;16.976;2022-12-18T01:55:19;32.50;;;13.30;;
59685;SDS011;45554;51.096;16.976;2022-12-18T01:57:51;34.00;;;13.90;;
59685;SDS011;45554;51.096;16.976;2022-12-18T02:00:21;34.50;;;12.10;;
59685;SDS011;45554;51.096;16.976;2022-12-18T02:02:52;33.50;;;14.00;;
59685;SDS011;45554;51.096;16.976;2022-12-18T02:28:21;30.70;;;12.00;;
59685;SDS011;45554;51.096;16.976;2022-12-18T02:30:54;29.10;;;11.40;;
59685;SDS011;45554;51.096;16.976;2022-12-18T02:33:29;30.70;;;11.40;;
59685;SDS011;45554;51.096;16.976;2022-12-18T02:35:58;28.80;;;12.30;;
59685;SDS011;45554;51.096;16.976;2022-12-18T02:38:29;30.40;;;12.70;;
59685;SDS011;45554;51.096;16.976;2022-12-18T02:41:04;31.10;;;12.80;;
59685;SDS011;45554;51.096;16.976;2022-12-18T02:43:33;31.90;;;12.50;;
59685;SDS011;45554;51.096;16.976;2022-12-18T02:46:20;27.30;;;11.60;;
59685;SDS011;45554;51.096;16.976;2022-12-18T02:48:58;29.90;;;11.10;;
59685;SDS011;45554;51.096;16.976;2022-12-18T02:51:53;28.30;;;12.30;;
59685;SDS011;45554;51.096;16.976;2022-12-18T02:54:37;27.60;;;11.70;;
59685;SDS011;45554;51.096;16.976;2022-12-18T02:57:17;30.90;;;12.90;;
59685;SDS011;45554;51.096;16.976;2022-12-18T02:59:57;31.60;;;13.50;;
59685;SDS011;45554;51.096;16.976;2022-12-18T03:05:37;27.50;;;11.30;;
59685;SDS011;45554;51.096;16.976;2022-12-18T03:08:16;28.40;;;11.30;;
59685;SDS011;45554;51.096;16.976;2022-12-18T03:10:55;28.80;;;11.70;;
59685;SDS011;45554;51.096;16.976;2022-12-18T03:13:33;28.80;;;11.50;;
59685;SDS011;45554;51.096;16.976;2022-12-18T03:16:06;31.40;;;12.90;;
59685;SDS011;45554;51.096;16.976;2022-12-18T03:18:39;34.20;;;14.10;;
59685;SDS011;45554;51.096;16.976;2022-12-18T03:21:14;33.00;;;13.90;;
59685;SDS011;45554;51.096;16.976;2022-12-18T03:23:47;33.90;;;13.70;;
59685;SDS011;45554;51.096;16.976;2022-12-18T03:26:19;27.90;;;12.80;;
59685;SDS011;45554;51.096;16.976;2022-12-18T03:28:53;31.30;;;12.70;;
59685;SDS011;45554;51.096;16.976;2022-12-18T03:31:25;31.30;;;12.40;;
59685;SDS011;45554;51.096;16.976;2022-12-18T03:33:58;31.60;;;12.80;;
59685;SDS011;45554;51.096;16.976;2022-12-18T03:36:35;35.70;;;14.20;;
59685;SDS011;45554;51.096;16.976;2022-12-18T03:39:04;31.00;;;12.60;;
59685;SDS011;45554;51.096;16.976;2022-12-18T03:41:44;33.30;;;15.00;;
59685;SDS011;45554;51.096;16.976;2022-12-18T03:44:37;35.80;;;13.80;;
59685;SDS011;45554;51.096;16.976;2022-12-18T03:47:17;34.20;;;14.90;;
59685;SDS011;45554;51.096;16.976;2022-12-18T03:49:57;30.50;;;12.90;;
59685;SDS011;45554;51.096;16.976;2022-12-18T03:52:28;30.60;;;12.40;;
59685;SDS011;45554;51.096;16.976;2022-12-18T03:55:03;30.90;;;13.70;;
59685;SDS011;45554;51.096;16.976;2022-12-18T03:57:34;33.30;;;12.60;;
59685;SDS011;45554;51.096;16.976;2022-12-18T04:00:06;33.10;;;13.20;;
59685;SDS011;45554;51.096;16.976;2022-12-18T04:03:00;31.90;;;14.00;;
59685;SDS011;45554;51.096;16.976;2022-12-18T04:05:34;37.10;;;13.90;;
59685;SDS011;45554;51.096;16.976;2022-12-18T04:08:06;35.70;;;14.10;;
59685;SDS011;45554;51.096;16.976;2022-12-18T04:10:37;30.20;;;12.90;;
59685;SDS011;45554;51.096;16.976;2022-12-18T04:13:06;34.30;;;14.20;;
59685;SDS011;45554;51.096;16.976;2022-12-18T04:15:35;31.20;;;13.00;;
59685;SDS011;45554;51.096;16.976;2022-12-18T04:18:05;32.40;;;12.50;;
59685;SDS011;45554;51.096;16.976;2022-12-18T04:20:39;30.70;;;12.50;;
59685;SDS011;45554;51.096;16.976;2022-12-18T04:23:07;27.80;;;11.90;;
59685;SDS011;45554;51.096;16.976;2022-12-18T04:25:36;31.30;;;12.50;;
59685;SDS011;45554;51.096;16.976;2022-12-18T04:28:07;31.70;;;12.70;;
59685;SDS011;45554;51.096;16.976;2022-12-18T04:30:36;29.60;;;12.70;;
59685;SDS011;45554;51.096;16.976;2022-12-18T04:33:11;31.30;;;12.90;;
59685;SDS011;45554;51.096;16.976;2022-12-18T04:35:41;30.10;;;12.80;;
59685;SDS011;45554;51.096;16.976;2022-12-18T04:38:09;33.20;;;12.50;;
59685;SDS011;45554;51.096;16.976;2022-12-18T04:40:38;30.00;;;12.60;;
59685;SDS011;45554;51.096;16.976;2022-12-18T04:43:13;42.90;;;15.60;;
59685;SDS011;45554;51.096;16.976;2022-12-18T04:45:41;33.80;;;14.40;;
59685;SDS011;45554;51.096;16.976;2022-12-18T04:48:09;36.30;;;14.20;;
59685;SDS011;45554;51.096;16.976;2022-12-18T04:50:38;32.80;;;13.50;;
59685;SDS011;45554;51.096;16.976;2022-12-18T04:53:07;31.90;;;14.30;;
59685;SDS011;45554;51.096;16.976;2022-12-18T04:55:36;35.20;;;12.90;;
59685;SDS011;45554;51.096;16.976;2022-12-18T04:58:04;29.50;;;12.70;;
59685;SDS011;45554;51.096;16.976;2022-12-18T05:00:32;29.20;;;12.90;;
59685;SDS011;45554;51.096;16.976;2022-12-18T05:03:00;33.80;;;14.10;;
59685;SDS011;45554;51.096;16.976;2022-12-18T05:05:30;31.50;;;13.40;;
59685;SDS011;45554;51.096;16.976;2022-12-18T05:07:58;29.90;;;12.20;;
59685;SDS011;45554;51.096;16.976;2022-12-18T05:10:26;35.70;;;13.20;;
59685;SDS011;45554;51.096;16.976;2022-12-18T05:12:54;31.70;;;14.20;;
59685;SDS011;45554;51.096;16.976;2022-12-18T05:15:28;33.70;;;13.30;;
59685;SDS011;45554;51.096;16.976;2022-12-18T05:17:58;32.60;;;12.80;;
59685;SDS011;45554;51.096;16.976;2022-12-18T05:20:26;29.20;;;12.50;;
59685;SDS011;45554;51.096;16.976;2022-12-18T05:22:55;26.60;;;11.90;;
59685;SDS011;45554;51.096;16.976;2022-12-18T05:25:24;33.20;;;13.10;;
59685;SDS011;45554;51.096;16.976;2022-12-18T05:27:52;31.80;;;12.00;;
59685;SDS011;45554;51.096;16.976;2022-12-18T05:30:20;28.40;;;12.60;;
59685;SDS011;45554;51.096;16.976;2022-12-18T05:32:48;26.50;;;11.80;;
59685;SDS011;45554;51.096;16.976;2022-12-18T05:35:15;29.70;;;12.20;;
59685;SDS011;45554;51.096;16.976;2022-12-18T05:37:43;25.70;;;11.60;;
59685;SDS011;45554;51.096;16.976;2022-12-18T05:40:12;30.00;;;13.50;;
59685;SDS011;45554;51.096;16.976;2022-12-18T05:42:40;28.90;;;13.10;;
59685;SDS011;45554;51.096;16.976;2022-12-18T05:45:08;31.70;;;13.30;;
59685;SDS011;45554;51.096;16.976;2022-12-18T05:47:36;30.10;;;13.20;;
59685;SDS011;45554;51.096;16.976;2022-12-18T05:50:05;33.50;;;13.30;;
59685;SDS011;45554;51.096;16.976;2022-12-18T05:55:02;30.50;;;14.80;;
59685;SDS011;45554;51.096;16.976;2022-12-18T05:57:30;35.20;;;15.60;;
59685;SDS011;45554;51.096;16.976;2022-12-18T05:59:58;32.90;;;14.50;;
59685;SDS011;45554;51.096;16.976;2022-12-18T06:02:26;36.70;;;15.70;;
59685;SDS011;45554;51.096;16.976;2022-12-18T06:04:54;32.80;;;14.90;;
59685;SDS011;45554;51.096;16.976;2022-12-18T06:07:22;37.40;;;15.40;;
59685;SDS011;45554;51.096;16.976;2022-12-18T06:09:50;37.80;;;16.90;;
59685;SDS011;45554;51.096;16.976;2022-12-18T06:12:20;36.40;;;16.30;;
59685;SDS011;45554;51.096;16.976;2022-12-18T06:14:48;38.80;;;17.10;;
59685;SDS011;45554;51.096;16.976;2022-12-18T06:17:16;39.50;;;18.10;;
59685;SDS011;45554;51.096;16.976;2022-12-18T06:19:44;39.50;;;16.90;;
59685;SDS011;45554;51.096;16.976;2022-12-18T06:22:12;39.20;;;17.20;;
59685;SDS011;45554;51.096;16.976;2022-12-18T06:24:40;40.80;;;17.60;;
59685;SDS011;45554;51.096;16.976;2022-12-18T06:27:09;37.50;;;15.30;;
59685;SDS011;45554;51.096;16.976;2022-12-18T06:29:37;40.90;;;17.80;;
59685;SDS011;45554;51.096;16.976;2022-12-18T06:32:06;37.60;;;17.10;;
59685;SDS011;45554;51.096;16.976;2022-12-18T06:34:34;40.50;;;18.30;;
59685;SDS011;45554;51.096;16.976;2022-12-18T06:37:06;37.80;;;17.10;;
59685;SDS011;45554;51.096;16.976;2022-12-18T06:39:34;40.90;;;17.50;;
59685;SDS011;45554;51.096;16.976;2022-12-18T06:42:03;47.70;;;18.60;;
59685;SDS011;45554;51.096;16.976;2022-12-18T06:44:31;44.80;;;18.80;;
59685;SDS011;45554;51.096;16.976;2022-12-18T06:46:59;42.70;;;18.30;;
59685;SDS011;45554;51.096;16.976;2022-12-18T06:49:27;42.20;;;18.40;;
59685;SDS011;45554;51.096;16.976;2022-12-18T06:51:57;43.50;;;18.60;;
59685;SDS011;45554;51.096;16.976;2022-12-18T06:54:25;44.50;;;18.90;;
59685;SDS011;45554;51.096;16.976;2022-12-18T06:56:53;42.00;;;18.00;;
59685;SDS011;45554;51.096;16.976;2022-12-18T06:59:21;38.40;;;18.20;;
59685;SDS011;45554;51.096;16.976;2022-12-18T07:01:49;39.90;;;19.50;;
59685;SDS011;45554;51.096;16.976;2022-12-18T07:04:17;40.90;;;18.80;;
59685;SDS011;45554;51.096;16.976;2022-12-18T07:06:45;40.80;;;19.70;;
59685;SDS011;45554;51.096;16.976;2022-12-18T07:09:13;41.80;;;18.90;;
59685;SDS011;45554;51.096;16.976;2022-12-18T07:11:41;40.80;;;17.40;;
59685;SDS011;45554;51.096;16.976;2022-12-18T07:14:09;33.00;;;15.00;;
59685;SDS011;45554;51.096;16.976;2022-12-18T07:16:37;37.80;;;18.10;;
59685;SDS011;45554;51.096;16.976;2022-12-18T07:19:05;41.00;;;17.20;;
59685;SDS011;45554;51.096;16.976;2022-12-18T07:21:33;37.10;;;16.50;;
59685;SDS011;45554;51.096;16.976;2022-12-18T07:24:02;41.90;;;17.80;;
59685;SDS011;45554;51.096;16.976;2022-12-18T07:26:30;37.10;;;17.10;;
59685;SDS011;45554;51.096;16.976;2022-12-18T07:28:58;36.80;;;17.10;;
59685;SDS011;45554;51.096;16.976;2022-12-18T07:31:26;34.90;;;16.50;;
59685;SDS011;45554;51.096;16.976;2022-12-18T07:33:55;31.50;;;15.10;;
59685;SDS011;45554;51.096;16.976;2022-12-18T07:36:23;36.90;;;15.70;;
59685;SDS011;45554;51.096;16.976;2022-12-18T07:38:52;31.80;;;15.50;;
59685;SDS011;45554;51.096;16.976;2022-12-18T07:41:20;32.40;;;16.00;;
59685;SDS011;45554;51.096;16.976;2022-12-18T07:43:48;34.00;;;15.30;;
59685;SDS011;45554;51.096;16.976;2022-12-18T07:46:17;31.20;;;15.70;;
59685;SDS011;45554;51.096;16.976;2022-12-18T07:48:45;33.50;;;15.50;;
59685;SDS011;45554;51.096;16.976;2022-12-18T07:51:17;34.00;;;15.20;;
59685;SDS011;45554;51.096;16.976;2022-12-18T07:53:46;28.20;;;14.00;;
59685;SDS011;45554;51.096;16.976;2022-12-18T07:56:19;34.70;;;15.20;;
59685;SDS011;45554;51.096;16.976;2022-12-18T07:58:54;35.60;;;17.20;;
59685;SDS011;45554;51.096;16.976;2022-12-18T08:01:23;35.00;;;16.30;;
59685;SDS011;45554;51.096;16.976;2022-12-18T08:03:52;42.00;;;17.90;;
59685;SDS011;45554;51.096;16.976;2022-12-18T08:06:20;36.70;;;16.50;;
59685;SDS011;45554;51.096;16.976;2022-12-18T08:08:51;34.00;;;16.40;;
59685;SDS011;45554;51.096;16.976;2022-12-18T08:11:23;38.10;;;17.60;;
59685;SDS011;45554;51.096;16.976;2022-12-18T08:13:54;37.40;;;17.90;;
59685;SDS011;45554;51.096;16.976;2022-12-18T08:16:22;34.70;;;17.20;;
59685;SDS011;45554;51.096;16.976;2022-12-18T08:18:51;34.10;;;17.30;;
59685;SDS011;45554;51.096;16.976;2022-12-18T08:21:21;33.40;;;17.10;;
59685;SDS011;45554;51.096;16.976;2022-12-18T08:23:55;35.30;;;16.30;;
59685;SDS011;45554;51.096;16.976;2022-12-18T08:26:25;38.80;;;18.60;;
59685;SDS011;45554;51.096;16.976;2022-12-18T08:28:55;40.10;;;18.70;;
59685;SDS011;45554;51.096;16.976;2022-12-18T08:31:24;34.40;;;17.00;;
59685;SDS011;45554;51.096;16.976;2022-12-18T08:33:54;39.50;;;17.60;;
59685;SDS011;45554;51.096;16.976;2022-12-18T08:38:52;34.90;;;14.10;;
59685;SDS011;45554;51.096;16.976;2022-12-18T08:41:20;34.60;;;16.70;;
59685;SDS011;45554;51.096;16.976;2022-12-18T08:43:49;32.50;;;16.20;;
59685;SDS011;45554;51.096;16.976;2022-12-18T08:46:37;32.40;;;16.20;;
59685;SDS011;45554;51.096;16.976;2022-12-18T08:49:08;33.40;;;15.30;;
59685;SDS011;45554;51.096;16.976;2022-12-18T08:51:37;36.20;;;16.80;;
59685;SDS011;45554;51.096;16.976;2022-12-18T08:54:07;35.20;;;17.40;;
59685;SDS011;45554;51.096;16.976;2022-12-18T08:56:38;32.40;;;17.10;;
59685;SDS011;45554;51.096;16.976;2022-12-18T08:59:06;34.10;;;16.00;;
59685;SDS011;45554;51.096;16.976;2022-12-18T09:01:33;32.70;;;16.50;;
59685;SDS011;45554;51.096;16.976;2022-12-18T09:04:02;34.80;;;16.40;;
59685;SDS011;45554;51.096;16.976;2022-12-18T09:06:31;33.20;;;15.70;;
59685;SDS011;45554;51.096;16.976;2022-12-18T09:08:58;33.10;;;16.20;;
59685;SDS011;45554;51.096;16.976;2022-12-18T09:11:27;34.30;;;16.90;;
59685;SDS011;45554;51.096;16.976;2022-12-18T09:13:56;29.50;;;15.30;;
59685;SDS011;45554;51.096;16.976;2022-12-18T09:16:25;35.80;;;17.60;;
59685;SDS011;45554;51.096;16.976;2022-12-18T09:18:59;38.50;;;17.80;;
59685;SDS011;45554;51.096;16.976;2022-12-18T09:21:28;36.30;;;16.60;;
59685;SDS011;45554;51.096;16.976;2022-12-18T09:24:03;37.90;;;18.50;;
59685;SDS011;45554;51.096;16.976;2022-12-18T09:26:35;33.80;;;16.50;;
59685;SDS011;45554;51.096;16.976;2022-12-18T09:29:04;37.80;;;18.60;;
59685;SDS011;45554;51.096;16.976;2022-12-18T09:31:32;35.10;;;17.10;;
59685;SDS011;45554;51.096;16.976;2022-12-18T09:34:01;35.80;;;17.40;;
59685;SDS011;45554;51.096;16.976;2022-12-18T09:36:29;35.60;;;17.80;;
59685;SDS011;45554;51.096;16.976;2022-12-18T09:38:58;47.80;;;22.80;;
59685;SDS011;45554;51.096;16.976;2022-12-18T09:44:23;36.20;;;18.70;;
59685;SDS011;45554;51.096;16.976;2022-12-18T09:47:03;39.40;;;20.40;;
59685;SDS011;45554;51.096;16.976;2022-12-18T09:49:39;40.40;;;19.90;;
59685;SDS011;45554;51.096;16.976;2022-12-18T09:52:15;38.30;;;19.40;;
59685;SDS011;45554;51.096;16.976;2022-12-18T09:54:52;39.40;;;19.60;;
59685;SDS011;45554;51.096;16.976;2022-12-18T09:57:25;38.40;;;19.50;;
59685;SDS011;45554;51.096;16.976;2022-12-18T09:59:59;40.70;;;19.40;;
59685;SDS011;45554;51.096;16.976;2022-12-18T10:02:37;36.30;;;17.00;;
59685;SDS011;45554;51.096;16.976;2022-12-18T10:05:07;43.20;;;19.80;;
59685;SDS011;45554;51.096;16.976;2022-12-18T10:07:55;39.20;;;17.90;;
59685;SDS011;45554;51.096;16.976;2022-12-18T10:10:35;40.30;;;17.50;;
59685;SDS011;45554;51.096;16.976;2022-12-18T10:13:14;38.50;;;17.40;;
59685;SDS011;45554;51.096;16.976;2022-12-18T10:21:15;38.40;;;17.40;;
59685;SDS011;45554;51.096;16.976;2022-12-18T10:26:59;37.30;;;16.90;;
59685;SDS011;45554;51.096;16.976;2022-12-18T10:29:40;34.10;;;17.30;;
59685;SDS011;45554;51.096;16.976;2022-12-18T10:32:18;69.20;;;26.40;;
59685;SDS011;45554;51.096;16.976;2022-12-18T10:34:53;42.40;;;20.40;;
59685;SDS011;45554;51.096;16.976;2022-12-18T10:37:28;41.00;;;19.60;;
59685;SDS011;45554;51.096;16.976;2022-12-18T10:45:40;41.40;;;19.00;;
59685;SDS011;45554;51.096;16.976;2022-12-18T10:50:47;39.70;;;18.50;;
59685;SDS011;45554;51.096;16.976;2022-12-18T10:53:38;43.10;;;17.70;;
59685;SDS011;45554;51.096;16.976;2022-12-18T10:56:09;41.10;;;18.80;;
59685;SDS011;45554;51.096;16.976;2022-12-18T10:58:38;41.10;;;17.60;;
59685;SDS011;45554;51.096;16.976;2022-12-18T11:01:15;42.90;;;19.30;;
59685;SDS011;45554;51.096;16.976;2022-12-18T11:03:46;45.10;;;20.30;;
59685;SDS011;45554;51.096;16.976;2022-12-18T11:06:29;42.00;;;20.30;;
59685;SDS011;45554;51.096;16.976;2022-12-18T11:09:01;42.40;;;19.40;;
59685;SDS011;45554;51.096;16.976;2022-12-18T11:11:41;45.70;;;21.00;;
59685;SDS011;45554;51.096;16.976;2022-12-18T11:14:18;47.70;;;22.50;;
59685;SDS011;45554;51.096;16.976;2022-12-18T11:16:50;45.00;;;20.20;;
59685;SDS011;45554;51.096;16.976;2022-12-18T11:19:40;50.70;;;21.30;;
59685;SDS011;45554;51.096;16.976;2022-12-18T11:22:25;46.70;;;23.50;;
59685;SDS011;45554;51.096;16.976;2022-12-18T11:28:03;44.40;;;19.50;;
59685;SDS011;45554;51.096;16.976;2022-12-18T11:30:36;38.50;;;17.40;;
59685;SDS011;45554;51.096;16.976;2022-12-18T11:33:06;37.90;;;16.90;;
59685;SDS011;45554;51.096;16.976;2022-12-18T11:35:53;35.10;;;14.70;;
59685;SDS011;45554;51.096;16.976;2022-12-18T11:38:32;33.30;;;15.00;;
59685;SDS011;45554;51.096;16.976;2022-12-18T11:41:07;31.30;;;15.40;;
59685;SDS011;45554;51.096;16.976;2022-12-18T11:43:45;31.80;;;15.60;;
59685;SDS011;45554;51.096;16.976;2022-12-18T11:46:26;37.90;;;17.90;;
59685;SDS011;45554;51.096;16.976;2022-12-18T11:49:06;33.00;;;16.30;;
59685;SDS011;45554;51.096;16.976;2022-12-18T11:51:51;34.30;;;15.50;;
59685;SDS011;45554;51.096;16.976;2022-12-18T11:54:26;35.60;;;16.50;;
59685;SDS011;45554;51.096;16.976;2022-12-18T12:07:38;38.00;;;17.40;;
59685;SDS011;45554;51.096;16.976;2022-12-18T12:10:41;41.10;;;17.90;;
59685;SDS011;45554;51.096;16.976;2022-12-18T12:13:26;38.80;;;17.40;;
59685;SDS011;45554;51.096;16.976;2022-12-18T12:16:03;44.30;;;19.40;;
59685;SDS011;45554;51.096;16.976;2022-12-18T12:21:42;40.40;;;17.40;;
59685;SDS011;45554;51.096;16.976;2022-12-18T12:29:57;47.60;;;20.20;;
59685;SDS011;45554;51.096;16.976;2022-12-18T12:38:31;43.10;;;18.40;;
59685;SDS011;45554;51.096;16.976;2022-12-18T12:41:19;44.80;;;19.50;;
59685;SDS011;45554;51.096;16.976;2022-12-18T12:44:20;49.00;;;20.00;;
59685;SDS011;45554;51.096;16.976;2022-12-18T12:46:55;43.30;;;18.90;;
59685;SDS011;45554;51.096;16.976;2022-12-18T12:49:27;43.40;;;19.10;;
59685;SDS011;45554;51.096;16.976;2022-12-18T12:52:26;43.70;;;20.10;;
59685;SDS011;45554;51.096;16.976;2022-12-18T12:54:58;44.60;;;20.40;;
59685;SDS011;45554;51.096;16.976;2022-12-18T12:57:33;51.60;;;21.90;;
59685;SDS011;45554;51.096;16.976;2022-12-18T13:00:16;50.10;;;21.70;;
59685;SDS011;45554;51.096;16.976;2022-12-18T13:08:26;48.40;;;21.70;;
59685;SDS011;45554;51.096;16.976;2022-12-18T13:11:01;48.80;;;20.30;;
59685;SDS011;45554;51.096;16.976;2022-12-18T13:13:52;49.30;;;22.10;;
59685;SDS011;45554;51.096;16.976;2022-12-18T13:16:23;52.40;;;21.80;;
59685;SDS011;45554;51.096;16.976;2022-12-18T13:18:53;51.70;;;21.30;;
59685;SDS011;45554;51.096;16.976;2022-12-18T13:21:25;45.00;;;19.40;;
59685;SDS011;45554;51.096;16.976;2022-12-18T13:23:57;49.50;;;20.00;;
59685;SDS011;45554;51.096;16.976;2022-12-18T13:26:43;51.70;;;21.60;;
59685;SDS011;45554;51.096;16.976;2022-12-18T13:29:11;49.50;;;22.70;;
59685;SDS011;45554;51.096;16.976;2022-12-18T13:34:20;46.60;;;19.80;;
59685;SDS011;45554;51.096;16.976;2022-12-18T13:36:55;53.60;;;21.70;;
59685;SDS011;45554;51.096;16.976;2022-12-18T13:39:44;45.10;;;20.40;;
59685;SDS011;45554;51.096;16.976;2022-12-18T13:45:00;51.60;;;22.20;;
59685;SDS011;45554;51.096;16.976;2022-12-18T13:47:33;52.80;;;21.70;;
59685;SDS011;45554;51.096;16.976;2022-12-18T13:50:22;43.20;;;18.40;;
59685;SDS011;45554;51.096;16.976;2022-12-18T13:52:58;47.70;;;20.20;;
59685;SDS011;45554;51.096;16.976;2022-12-18T13:55:26;51.60;;;23.60;;
59685;SDS011;45554;51.096;16.976;2022-12-18T13:58:04;51.00;;;22.60;;
59685;SDS011;45554;51.096;16.976;2022-12-18T14:00:34;48.50;;;20.70;;
59685;SDS011;45554;51.096;16.976;2022-12-18T14:03:02;54.30;;;21.40;;
59685;SDS011;45554;51.096;16.976;2022-12-18T14:05:53;50.80;;;20.50;;
59685;SDS011;45554;51.096;16.976;2022-12-18T14:08:25;48.40;;;22.40;;
59685;SDS011;45554;51.096;16.976;2022-12-18T14:10:58;54.20;;;23.80;;
59685;SDS011;45554;51.096;16.976;2022-12-18T14:13:30;47.30;;;21.90;;
59685;SDS011;45554;51.096;16.976;2022-12-18T14:16:02;49.60;;;20.80;;
59685;SDS011;45554;51.096;16.976;2022-12-18T14:18:41;54.90;;;23.10;;
59685;SDS011;45554;51.096;16.976;2022-12-18T14:21:16;55.70;;;21.70;;
59685;SDS011;45554;51.096;16.976;2022-12-18T14:23:47;52.00;;;21.70;;
59685;SDS011;45554;51.096;16.976;2022-12-18T14:26:26;49.00;;;20.60;;
59685;SDS011;45554;51.096;16.976;2022-12-18T14:28:58;59.50;;;24.60;;
59685;SDS011;45554;51.096;16.976;2022-12-18T14:31:31;53.60;;;22.50;;
59685;SDS011;45554;51.096;16.976;2022-12-18T14:33:59;52.80;;;22.70;;
59685;SDS011;45554;51.096;16.976;2022-12-18T14:36:28;53.40;;;22.40;;
59685;SDS011;45554;51.096;16.976;2022-12-18T14:41:25;49.90;;;21.20;;
59685;SDS011;45554;51.096;16.976;2022-12-18T14:49:02;55.00;;;21.40;;
59685;SDS011;45554;51.096;16.976;2022-12-18T14:51:32;51.40;;;21.60;;
59685;SDS011;45554;51.096;16.976;2022-12-18T14:54:06;54.50;;;23.70;;
59685;SDS011;45554;51.096;16.976;2022-12-18T14:56:44;52.30;;;21.60;;
59685;SDS011;45554;51.096;16.976;2022-12-18T14:59:15;55.70;;;22.40;;
59685;SDS011;45554;51.096;16.976;2022-12-18T15:04:28;61.10;;;24.70;;
59685;SDS011;45554;51.096;16.976;2022-12-18T15:09:31;52.10;;;22.70;;
59685;SDS011;45554;51.096;16.976;2022-12-18T15:12:00;54.30;;;23.90;;
59685;SDS011;45554;51.096;16.976;2022-12-18T15:17:00;59.60;;;25.40;;
59685;SDS011;45554;51.096;16.976;2022-12-18T15:22:00;65.10;;;28.20;;
59685;SDS011;45554;51.096;16.976;2022-12-18T15:24:33;67.40;;;28.80;;
59685;SDS011;45554;51.096;16.976;2022-12-18T15:27:01;68.70;;;29.80;;
59685;SDS011;45554;51.096;16.976;2022-12-18T15:29:29;63.20;;;29.60;;
59685;SDS011;45554;51.096;16.976;2022-12-18T15:31:58;60.30;;;27.10;;
59685;SDS011;45554;51.096;16.976;2022-12-18T15:34:31;66.20;;;28.90;;
59685;SDS011;45554;51.096;16.976;2022-12-18T15:37:01;61.70;;;25.60;;
59685;SDS011;45554;51.096;16.976;2022-12-18T15:39:29;57.40;;;24.60;;
59685;SDS011;45554;51.096;16.976;2022-12-18T15:41:57;58.70;;;25.70;;
59685;SDS011;45554;51.096;16.976;2022-12-18T15:44:44;52.50;;;21.10;;
59685;SDS011;45554;51.096;16.976;2022-12-18T15:47:12;51.50;;;21.70;;
59685;SDS011;45554;51.096;16.976;2022-12-18T15:49:40;51.00;;;22.30;;
59685;SDS011;45554;51.096;16.976;2022-12-18T15:52:08;51.20;;;21.10;;
59685;SDS011;45554;51.096;16.976;2022-12-18T15:54:41;52.10;;;20.80;;
59685;SDS011;45554;51.096;16.976;2022-12-18T15:57:27;60.10;;;24.20;;
59685;SDS011;45554;51.096;16.976;2022-12-18T15:59:56;51.80;;;22.60;;
59685;SDS011;45554;51.096;16.976;2022-12-18T16:04:56;63.50;;;28.10;;
59685;SDS011;45554;51.096;16.976;2022-12-18T16:07:24;61.20;;;25.10;;
59685;SDS011;45554;51.096;16.976;2022-12-18T16:09:56;58.50;;;25.10;;
59685;SDS011;45554;51.096;16.976;2022-12-18T16:12:29;63.00;;;25.70;;
59685;SDS011;45554;51.096;16.976;2022-12-18T16:14:57;56.60;;;24.60;;
59685;SDS011;45554;51.096;16.976;2022-12-18T16:17:26;61.10;;;25.30;;
59685;SDS011;45554;51.096;16.976;2022-12-18T16:19:54;63.00;;;28.20;;
59685;SDS011;45554;51.096;16.976;2022-12-18T16:22:23;69.20;;;28.90;;
59685;SDS011;45554;51.096;16.976;2022-12-18T16:24:54;66.90;;;27.40;;
59685;SDS011;45554;51.096;16.976;2022-12-18T16:27:23;61.00;;;25.60;;
59685;SDS011;45554;51.096;16.976;2022-12-18T16:29:53;60.40;;;26.50;;
59685;SDS011;45554;51.096;16.976;2022-12-18T16:32:21;68.70;;;27.70;;
59685;SDS011;45554;51.096;16.976;2022-12-18T16:34:50;80.60;;;29.20;;
59685;SDS011;45554;51.096;16.976;2022-12-18T16:37:18;85.60;;;31.70;;
59685;SDS011;45554;51.096;16.976;2022-12-18T16:39:46;76.90;;;31.70;;